Airfield :
LOGIN :

Register | Disclaimer

   EN    FR    IT 

 










Legend :    VFR   Marginal VFR   IFR   Intensive IFR   Very Intensive IFR
Visi :
Ceiling :
>= 8 km
>= 3000ft
5 to 8 km
1000 to 3000 ft
1500m to 5 km
500 to 1000 ft
800 to 1500m
200 to 500 ft
< 800m
< 200 ft
Symbols :   Thunderstorms  Fog  Heavy snow  Heavy precipitations  Wind > 20 kt
SIGMETs :     Misc.  Thunderstorms  Icing  Turbulence  Mountain Waves  Volcanic Ashes






- Airport Elevation : 218 ft
- IATA code : LBG


LFPB - Paris / Le Bourget

CURRENT METAR :
  • 201030Z AUTO 06004KT 010V140 CAVOK 16/05 Q1017 TEMPO SCT050TCU

EXPIRED METARs :
  • 201000Z AUTO VRB03KT CAVOK 16/05 Q1017 NOSIG
  • 200930Z AUTO VRB03KT CAVOK 15/05 Q1017 NOSIG
  • 200900Z AUTO 05005KT 330V090 CAVOK 14/06 Q1017 NOSIG
  • 200830Z AUTO 04004KT 360V080 CAVOK 13/07 Q1017 NOSIG

TAF TAF LFPB
Valid from the 20 at 06:00 until the 21 at 06:00 UTC


200500Z 2006/2106 02005KT CAVOK
PROB30
TEMPO 2012/2015 SCT050TCU
PROB40 2105/2106 4000 BR
ATIS : +33 1 48 62 43 92



MET'MAP, your aeronautical weather chart ! - Copyright ORBIFLY December 2007 - Disclaimer

ORBIFLY MET'MAP TEAM :

Programming & Development : Alexandra Zaïnal
Concept & original design : Baudouin d'Aumeries
Assistance for programming : Marc-Olivier Méhu
Technical & hardware support : Manuel Goepfert

Contact : metmap@orbifly.com




SOURCES & CREDITS :

   NOAA